sensor_id;sensor_type;location;lat;lon;timestamp;P1;durP1;ratioP1;P2;durP2;ratioP2
20639;SDS011;10479;53.524;9.846;2022-09-30T00:01:00;25.92;;;13.23;;
20639;SDS011;10479;53.524;9.846;2022-09-30T00:03:27;20.45;;;10.80;;
20639;SDS011;10479;53.524;9.846;2022-09-30T00:05:56;21.83;;;12.27;;
20639;SDS011;10479;53.524;9.846;2022-09-30T00:08:25;24.33;;;13.57;;
20639;SDS011;10479;53.524;9.846;2022-09-30T00:11:25;25.73;;;14.23;;
20639;SDS011;10479;53.524;9.846;2022-09-30T00:13:45;27.90;;;14.05;;
20639;SDS011;10479;53.524;9.846;2022-09-30T00:16:15;22.80;;;12.98;;
20639;SDS011;10479;53.524;9.846;2022-09-30T00:18:42;26.20;;;15.15;;
20639;SDS011;10479;53.524;9.846;2022-09-30T00:21:08;26.25;;;14.98;;
20639;SDS011;10479;53.524;9.846;2022-09-30T00:23:35;24.92;;;15.63;;
20639;SDS011;10479;53.524;9.846;2022-09-30T00:26:04;26.67;;;16.10;;
20639;SDS011;10479;53.524;9.846;2022-09-30T00:28:31;25.50;;;15.85;;
20639;SDS011;10479;53.524;9.846;2022-09-30T00:30:59;24.88;;;14.85;;
20639;SDS011;10479;53.524;9.846;2022-09-30T00:33:26;28.42;;;15.90;;
20639;SDS011;10479;53.524;9.846;2022-09-30T00:35:52;28.92;;;16.50;;
20639;SDS011;10479;53.524;9.846;2022-09-30T00:38:18;26.88;;;16.05;;
20639;SDS011;10479;53.524;9.846;2022-09-30T00:40:43;30.35;;;16.98;;
20639;SDS011;10479;53.524;9.846;2022-09-30T00:43:12;30.35;;;17.63;;
20639;SDS011;10479;53.524;9.846;2022-09-30T00:45:41;31.17;;;17.33;;
20639;SDS011;10479;53.524;9.846;2022-09-30T00:48:13;26.90;;;15.37;;
20639;SDS011;10479;53.524;9.846;2022-09-30T00:50:45;32.55;;;17.05;;
20639;SDS011;10479;53.524;9.846;2022-09-30T00:53:13;24.67;;;14.95;;
20639;SDS011;10479;53.524;9.846;2022-09-30T00:56:03;27.42;;;16.13;;
20639;SDS011;10479;53.524;9.846;2022-09-30T00:58:36;23.95;;;14.13;;
20639;SDS011;10479;53.524;9.846;2022-09-30T01:01:08;28.20;;;16.02;;
20639;SDS011;10479;53.524;9.846;2022-09-30T01:03:35;31.58;;;17.05;;
20639;SDS011;10479;53.524;9.846;2022-09-30T01:06:22;43.25;;;20.13;;
20639;SDS011;10479;53.524;9.846;2022-09-30T01:08:48;34.92;;;18.38;;
20639;SDS011;10479;53.524;9.846;2022-09-30T01:11:14;32.33;;;17.63;;
20639;SDS011;10479;53.524;9.846;2022-09-30T01:13:40;41.50;;;21.02;;
20639;SDS011;10479;53.524;9.846;2022-09-30T01:26:45;32.63;;;17.75;;
20639;SDS011;10479;53.524;9.846;2022-09-30T01:29:19;34.33;;;19.05;;
20639;SDS011;10479;53.524;9.846;2022-09-30T01:37:09;31.80;;;17.20;;
20639;SDS011;10479;53.524;9.846;2022-09-30T01:39:43;29.92;;;16.38;;
20639;SDS011;10479;53.524;9.846;2022-09-30T01:45:24;33.80;;;18.30;;
20639;SDS011;10479;53.524;9.846;2022-09-30T01:47:59;41.05;;;21.75;;
20639;SDS011;10479;53.524;9.846;2022-09-30T01:50:46;49.53;;;22.85;;
20639;SDS011;10479;53.524;9.846;2022-09-30T02:03:47;48.60;;;22.63;;
20639;SDS011;10479;53.524;9.846;2022-09-30T02:06:27;42.60;;;21.13;;
20639;SDS011;10479;53.524;9.846;2022-09-30T02:08:57;42.05;;;21.95;;
20639;SDS011;10479;53.524;9.846;2022-09-30T02:11:26;40.95;;;22.08;;
20639;SDS011;10479;53.524;9.846;2022-09-30T02:13:55;35.92;;;20.10;;
20639;SDS011;10479;53.524;9.846;2022-09-30T02:16:26;49.28;;;25.67;;
20639;SDS011;10479;53.524;9.846;2022-09-30T02:18:57;43.90;;;22.38;;
20639;SDS011;10479;53.524;9.846;2022-09-30T02:21:30;47.97;;;23.77;;
20639;SDS011;10479;53.524;9.846;2022-09-30T02:23:59;47.72;;;24.67;;
20639;SDS011;10479;53.524;9.846;2022-09-30T02:26:30;40.28;;;21.27;;
20639;SDS011;10479;53.524;9.846;2022-09-30T02:29:17;44.90;;;22.97;;
20639;SDS011;10479;53.524;9.846;2022-09-30T02:31:46;52.67;;;25.30;;
20639;SDS011;10479;53.524;9.846;2022-09-30T02:34:15;54.55;;;24.30;;
20639;SDS011;10479;53.524;9.846;2022-09-30T02:36:47;52.70;;;25.02;;
20639;SDS011;10479;53.524;9.846;2022-09-30T02:42:13;45.25;;;21.73;;
20639;SDS011;10479;53.524;9.846;2022-09-30T02:44:43;29.58;;;16.60;;
20639;SDS011;10479;53.524;9.846;2022-09-30T02:47:10;33.03;;;17.63;;
20639;SDS011;10479;53.524;9.846;2022-09-30T02:55:30;36.92;;;18.80;;
20639;SDS011;10479;53.524;9.846;2022-09-30T02:58:12;45.63;;;22.23;;
20639;SDS011;10479;53.524;9.846;2022-09-30T03:00:43;46.60;;;23.83;;
20639;SDS011;10479;53.524;9.846;2022-09-30T03:03:17;45.58;;;22.33;;
20639;SDS011;10479;53.524;9.846;2022-09-30T03:05:44;51.47;;;24.20;;
20639;SDS011;10479;53.524;9.846;2022-09-30T03:08:10;50.97;;;24.23;;
20639;SDS011;10479;53.524;9.846;2022-09-30T03:10:35;47.03;;;24.98;;
20639;SDS011;10479;53.524;9.846;2022-09-30T03:13:20;42.65;;;23.48;;
20639;SDS011;10479;53.524;9.846;2022-09-30T03:18:29;51.78;;;25.90;;
20639;SDS011;10479;53.524;9.846;2022-09-30T03:27:04;49.78;;;26.48;;
20639;SDS011;10479;53.524;9.846;2022-09-30T03:29:50;61.47;;;29.05;;
20639;SDS011;10479;53.524;9.846;2022-09-30T03:43:46;40.17;;;21.48;;
20639;SDS011;10479;53.524;9.846;2022-09-30T03:48:42;47.38;;;24.80;;
20639;SDS011;10479;53.524;9.846;2022-09-30T03:51:09;41.70;;;22.98;;
20639;SDS011;10479;53.524;9.846;2022-09-30T03:53:38;39.75;;;22.17;;
20639;SDS011;10479;53.524;9.846;2022-09-30T03:56:05;40.58;;;21.48;;
20639;SDS011;10479;53.524;9.846;2022-09-30T03:58:30;42.92;;;22.40;;
20639;SDS011;10479;53.524;9.846;2022-09-30T04:00:56;44.40;;;22.67;;
20639;SDS011;10479;53.524;9.846;2022-09-30T04:03:23;69.28;;;29.77;;
20639;SDS011;10479;53.524;9.846;2022-09-30T04:05:52;56.15;;;27.73;;
20639;SDS011;10479;53.524;9.846;2022-09-30T04:08:17;66.75;;;27.88;;
20639;SDS011;10479;53.524;9.846;2022-09-30T04:10:43;68.47;;;30.40;;
20639;SDS011;10479;53.524;9.846;2022-09-30T04:13:09;42.38;;;22.73;;
20639;SDS011;10479;53.524;9.846;2022-09-30T04:15:36;54.72;;;26.02;;
20639;SDS011;10479;53.524;9.846;2022-09-30T04:18:02;39.53;;;23.02;;
20639;SDS011;10479;53.524;9.846;2022-09-30T04:20:29;49.72;;;25.77;;
20639;SDS011;10479;53.524;9.846;2022-09-30T04:22:56;76.55;;;31.75;;
20639;SDS011;10479;53.524;9.846;2022-09-30T04:25:22;61.83;;;27.85;;
20639;SDS011;10479;53.524;9.846;2022-09-30T04:27:48;41.30;;;22.48;;
20639;SDS011;10479;53.524;9.846;2022-09-30T04:30:13;46.70;;;25.02;;
20639;SDS011;10479;53.524;9.846;2022-09-30T04:32:41;41.10;;;22.52;;
20639;SDS011;10479;53.524;9.846;2022-09-30T04:35:13;40.50;;;22.23;;
20639;SDS011;10479;53.524;9.846;2022-09-30T04:37:44;47.65;;;25.50;;
20639;SDS011;10479;53.524;9.846;2022-09-30T04:40:11;50.13;;;24.00;;
20639;SDS011;10479;53.524;9.846;2022-09-30T04:42:37;51.92;;;25.92;;
20639;SDS011;10479;53.524;9.846;2022-09-30T04:45:04;56.92;;;27.05;;
20639;SDS011;10479;53.524;9.846;2022-09-30T04:47:30;47.58;;;24.35;;
20639;SDS011;10479;53.524;9.846;2022-09-30T04:49:55;57.55;;;27.40;;
20639;SDS011;10479;53.524;9.846;2022-09-30T04:52:21;46.00;;;25.00;;
20639;SDS011;10479;53.524;9.846;2022-09-30T04:54:47;42.83;;;24.52;;
20639;SDS011;10479;53.524;9.846;2022-09-30T04:57:13;67.90;;;29.65;;
20639;SDS011;10479;53.524;9.846;2022-09-30T04:59:39;49.95;;;25.98;;
20639;SDS011;10479;53.524;9.846;2022-09-30T05:02:05;60.25;;;29.60;;
20639;SDS011;10479;53.524;9.846;2022-09-30T05:04:30;40.97;;;23.55;;
20639;SDS011;10479;53.524;9.846;2022-09-30T05:06:58;45.45;;;23.63;;
20639;SDS011;10479;53.524;9.846;2022-09-30T05:09:30;61.03;;;28.77;;
20639;SDS011;10479;53.524;9.846;2022-09-30T05:11:56;55.75;;;27.13;;
20639;SDS011;10479;53.524;9.846;2022-09-30T05:14:21;41.78;;;23.25;;
20639;SDS011;10479;53.524;9.846;2022-09-30T05:16:47;52.65;;;26.33;;
20639;SDS011;10479;53.524;9.846;2022-09-30T05:19:12;62.75;;;30.80;;
20639;SDS011;10479;53.524;9.846;2022-09-30T05:21:38;69.53;;;31.70;;
20639;SDS011;10479;53.524;9.846;2022-09-30T05:24:05;61.83;;;31.33;;
20639;SDS011;10479;53.524;9.846;2022-09-30T05:26:30;56.05;;;29.38;;
20639;SDS011;10479;53.524;9.846;2022-09-30T05:28:57;63.95;;;30.40;;
20639;SDS011;10479;53.524;9.846;2022-09-30T05:31:22;55.40;;;29.33;;
20639;SDS011;10479;53.524;9.846;2022-09-30T05:33:48;60.95;;;30.83;;
20639;SDS011;10479;53.524;9.846;2022-09-30T05:36:14;62.30;;;29.83;;
20639;SDS011;10479;53.524;9.846;2022-09-30T05:38:40;57.42;;;28.83;;
20639;SDS011;10479;53.524;9.846;2022-09-30T05:41:06;54.75;;;27.95;;
20639;SDS011;10479;53.524;9.846;2022-09-30T05:43:33;47.85;;;26.08;;
20639;SDS011;10479;53.524;9.846;2022-09-30T05:45:59;57.60;;;29.98;;
20639;SDS011;10479;53.524;9.846;2022-09-30T05:48:25;65.53;;;32.42;;
20639;SDS011;10479;53.524;9.846;2022-09-30T05:50:55;55.60;;;29.85;;
20639;SDS011;10479;53.524;9.846;2022-09-30T05:53:21;53.15;;;29.13;;
20639;SDS011;10479;53.524;9.846;2022-09-30T05:55:48;51.90;;;29.38;;
20639;SDS011;10479;53.524;9.846;2022-09-30T05:58:14;54.22;;;29.25;;
20639;SDS011;10479;53.524;9.846;2022-09-30T06:00:41;53.50;;;28.73;;
20639;SDS011;10479;53.524;9.846;2022-09-30T06:03:07;45.83;;;26.75;;
20639;SDS011;10479;53.524;9.846;2022-09-30T06:05:32;47.72;;;25.65;;
20639;SDS011;10479;53.524;9.846;2022-09-30T06:07:58;43.47;;;25.45;;
20639;SDS011;10479;53.524;9.846;2022-09-30T06:10:24;44.65;;;24.13;;
20639;SDS011;10479;53.524;9.846;2022-09-30T06:12:49;43.00;;;25.23;;
20639;SDS011;10479;53.524;9.846;2022-09-30T06:15:16;46.67;;;25.67;;
20639;SDS011;10479;53.524;9.846;2022-09-30T06:17:41;49.38;;;26.80;;
20639;SDS011;10479;53.524;9.846;2022-09-30T06:20:10;44.88;;;24.05;;
20639;SDS011;10479;53.524;9.846;2022-09-30T06:22:36;39.25;;;22.55;;
20639;SDS011;10479;53.524;9.846;2022-09-30T06:25:05;38.17;;;23.17;;
20639;SDS011;10479;53.524;9.846;2022-09-30T06:27:34;37.95;;;22.13;;
20639;SDS011;10479;53.524;9.846;2022-09-30T06:30:01;42.40;;;22.83;;
20639;SDS011;10479;53.524;9.846;2022-09-30T06:32:27;46.45;;;26.17;;
20639;SDS011;10479;53.524;9.846;2022-09-30T06:34:54;50.90;;;26.95;;
20639;SDS011;10479;53.524;9.846;2022-09-30T06:37:23;44.42;;;24.67;;
20639;SDS011;10479;53.524;9.846;2022-09-30T06:39:49;37.70;;;21.60;;
20639;SDS011;10479;53.524;9.846;2022-09-30T06:42:16;42.40;;;24.27;;
20639;SDS011;10479;53.524;9.846;2022-09-30T06:44:42;41.17;;;23.63;;
20639;SDS011;10479;53.524;9.846;2022-09-30T06:47:09;42.25;;;23.48;;
20639;SDS011;10479;53.524;9.846;2022-09-30T06:49:35;34.17;;;21.13;;
20639;SDS011;10479;53.524;9.846;2022-09-30T06:52:00;33.90;;;20.75;;
20639;SDS011;10479;53.524;9.846;2022-09-30T06:54:26;37.88;;;22.80;;
20639;SDS011;10479;53.524;9.846;2022-09-30T06:56:53;32.75;;;19.30;;
20639;SDS011;10479;53.524;9.846;2022-09-30T06:59:22;35.35;;;19.30;;
20639;SDS011;10479;53.524;9.846;2022-09-30T07:01:48;27.88;;;18.60;;
20639;SDS011;10479;53.524;9.846;2022-09-30T07:04:14;34.20;;;19.50;;
20639;SDS011;10479;53.524;9.846;2022-09-30T07:06:40;33.20;;;19.77;;
20639;SDS011;10479;53.524;9.846;2022-09-30T07:09:06;36.97;;;21.10;;
20639;SDS011;10479;53.524;9.846;2022-09-30T07:11:32;28.67;;;19.08;;
20639;SDS011;10479;53.524;9.846;2022-09-30T07:13:58;30.83;;;19.00;;
20639;SDS011;10479;53.524;9.846;2022-09-30T07:16:24;31.17;;;18.45;;
20639;SDS011;10479;53.524;9.846;2022-09-30T07:18:50;26.92;;;16.88;;
20639;SDS011;10479;53.524;9.846;2022-09-30T07:21:15;24.58;;;16.55;;
20639;SDS011;10479;53.524;9.846;2022-09-30T07:23:42;25.85;;;17.17;;
20639;SDS011;10479;53.524;9.846;2022-09-30T07:26:13;25.73;;;16.42;;
20639;SDS011;10479;53.524;9.846;2022-09-30T07:28:39;28.67;;;17.33;;
20639;SDS011;10479;53.524;9.846;2022-09-30T07:31:06;26.75;;;17.27;;
20639;SDS011;10479;53.524;9.846;2022-09-30T07:33:36;28.30;;;17.30;;
20639;SDS011;10479;53.524;9.846;2022-09-30T07:36:03;30.15;;;17.70;;
20639;SDS011;10479;53.524;9.846;2022-09-30T07:38:33;27.30;;;16.17;;
20639;SDS011;10479;53.524;9.846;2022-09-30T07:43:39;24.58;;;15.68;;
20639;SDS011;10479;53.524;9.846;2022-09-30T07:48:43;27.38;;;15.52;;
20639;SDS011;10479;53.524;9.846;2022-09-30T07:51:14;27.42;;;15.32;;
20639;SDS011;10479;53.524;9.846;2022-09-30T07:53:43;26.10;;;15.25;;
20639;SDS011;10479;53.524;9.846;2022-09-30T07:56:10;24.05;;;15.60;;
20639;SDS011;10479;53.524;9.846;2022-09-30T07:58:36;23.42;;;14.65;;
20639;SDS011;10479;53.524;9.846;2022-09-30T08:01:02;24.73;;;14.90;;
20639;SDS011;10479;53.524;9.846;2022-09-30T08:03:31;23.75;;;14.02;;
20639;SDS011;10479;53.524;9.846;2022-09-30T08:06:02;19.88;;;12.35;;
20639;SDS011;10479;53.524;9.846;2022-09-30T08:08:31;20.90;;;11.85;;
20639;SDS011;10479;53.524;9.846;2022-09-30T08:10:58;20.85;;;11.93;;
20639;SDS011;10479;53.524;9.846;2022-09-30T08:13:24;20.10;;;11.18;;
20639;SDS011;10479;53.524;9.846;2022-09-30T08:15:50;20.25;;;11.70;;
20639;SDS011;10479;53.524;9.846;2022-09-30T08:18:16;20.88;;;11.65;;
20639;SDS011;10479;53.524;9.846;2022-09-30T08:20:41;17.83;;;10.23;;
20639;SDS011;10479;53.524;9.846;2022-09-30T08:23:07;17.00;;;9.50;;
20639;SDS011;10479;53.524;9.846;2022-09-30T08:25:32;17.25;;;10.55;;
20639;SDS011;10479;53.524;9.846;2022-09-30T08:27:58;21.13;;;9.95;;
20639;SDS011;10479;53.524;9.846;2022-09-30T08:30:23;16.60;;;10.35;;
20639;SDS011;10479;53.524;9.846;2022-09-30T08:32:49;13.88;;;9.15;;
20639;SDS011;10479;53.524;9.846;2022-09-30T08:35:15;14.43;;;9.13;;
20639;SDS011;10479;53.524;9.846;2022-09-30T08:37:40;13.55;;;8.50;;
20639;SDS011;10479;53.524;9.846;2022-09-30T08:40:08;14.73;;;9.10;;
20639;SDS011;10479;53.524;9.846;2022-09-30T08:42:58;14.65;;;7.93;;
20639;SDS011;10479;53.524;9.846;2022-09-30T08:45:50;14.98;;;8.00;;
20639;SDS011;10479;53.524;9.846;2022-09-30T08:48:45;14.20;;;8.30;;
20639;SDS011;10479;53.524;9.846;2022-09-30T08:51:21;14.52;;;8.55;;
20639;SDS011;10479;53.524;9.846;2022-09-30T08:53:49;15.63;;;8.07;;
20639;SDS011;10479;53.524;9.846;2022-09-30T08:56:18;14.15;;;7.57;;
20639;SDS011;10479;53.524;9.846;2022-09-30T08:58:55;14.90;;;8.10;;
20639;SDS011;10479;53.524;9.846;2022-09-30T09:01:33;10.38;;;6.70;;
20639;SDS011;10479;53.524;9.846;2022-09-30T09:04:01;15.30;;;6.45;;
20639;SDS011;10479;53.524;9.846;2022-09-30T09:12:19;12.15;;;6.68;;
20639;SDS011;10479;53.524;9.846;2022-09-30T09:20:14;14.77;;;6.63;;
20639;SDS011;10479;53.524;9.846;2022-09-30T09:22:42;11.77;;;5.63;;
20639;SDS011;10479;53.524;9.846;2022-09-30T09:25:13;11.25;;;5.50;;
20639;SDS011;10479;53.524;9.846;2022-09-30T09:30:10;10.75;;;5.88;;
20639;SDS011;10479;53.524;9.846;2022-09-30T09:32:38;10.45;;;5.57;;
20639;SDS011;10479;53.524;9.846;2022-09-30T09:35:14;10.20;;;5.85;;
20639;SDS011;10479;53.524;9.846;2022-09-30T09:46:10;8.48;;;4.60;;
20639;SDS011;10479;53.524;9.846;2022-09-30T09:48:39;10.65;;;4.90;;
20639;SDS011;10479;53.524;9.846;2022-09-30T09:53:59;8.23;;;4.70;;
20639;SDS011;10479;53.524;9.846;2022-09-30T09:56:27;11.60;;;4.60;;
20639;SDS011;10479;53.524;9.846;2022-09-30T09:59:03;6.93;;;4.18;;
20639;SDS011;10479;53.524;9.846;2022-09-30T10:01:43;7.07;;;4.47;;
20639;SDS011;10479;53.524;9.846;2022-09-30T10:04:14;7.72;;;4.25;;
20639;SDS011;10479;53.524;9.846;2022-09-30T10:12:16;9.65;;;4.05;;
20639;SDS011;10479;53.524;9.846;2022-09-30T10:14:59;7.47;;;4.10;;
20639;SDS011;10479;53.524;9.846;2022-09-30T10:17:32;7.47;;;3.97;;
20639;SDS011;10479;53.524;9.846;2022-09-30T10:20:00;9.63;;;3.67;;
20639;SDS011;10479;53.524;9.846;2022-09-30T10:22:27;11.23;;;5.18;;
20639;SDS011;10479;53.524;9.846;2022-09-30T10:25:16;6.90;;;4.18;;
20639;SDS011;10479;53.524;9.846;2022-09-30T10:28:18;7.63;;;3.60;;
20639;SDS011;10479;53.524;9.846;2022-09-30T10:30:44;6.18;;;2.67;;
20639;SDS011;10479;53.524;9.846;2022-09-30T10:33:34;6.95;;;2.90;;
20639;SDS011;10479;53.524;9.846;2022-09-30T10:36:06;8.85;;;2.50;;
20639;SDS011;10479;53.524;9.846;2022-09-30T10:38:34;4.70;;;2.40;;
20639;SDS011;10479;53.524;9.846;2022-09-30T10:41:01;5.53;;;2.20;;
20639;SDS011;10479;53.524;9.846;2022-09-30T10:43:29;4.72;;;2.30;;
20639;SDS011;10479;53.524;9.846;2022-09-30T10:45:58;7.38;;;2.60;;
20639;SDS011;10479;53.524;9.846;2022-09-30T10:48:27;5.47;;;2.45;;
20639;SDS011;10479;53.524;9.846;2022-09-30T10:50:56;8.25;;;2.47;;
20639;SDS011;10479;53.524;9.846;2022-09-30T10:53:42;5.15;;;2.45;;
20639;SDS011;10479;53.524;9.846;2022-09-30T10:56:07;5.82;;;2.28;;
20639;SDS011;10479;53.524;9.846;2022-09-30T10:58:49;5.78;;;2.60;;
20639;SDS011;10479;53.524;9.846;2022-09-30T11:01:21;7.18;;;2.63;;
20639;SDS011;10479;53.524;9.846;2022-09-30T11:04:04;3.72;;;2.17;;
20639;SDS011;10479;53.524;9.846;2022-09-30T11:06:38;6.35;;;2.20;;
20639;SDS011;10479;53.524;9.846;2022-09-30T11:11:41;4.22;;;2.20;;
20639;SDS011;10479;53.524;9.846;2022-09-30T11:14:19;3.40;;;2.00;;
20639;SDS011;10479;53.524;9.846;2022-09-30T11:16:55;5.13;;;2.15;;
20639;SDS011;10479;53.524;9.846;2022-09-30T11:19:32;5.85;;;2.80;;
20639;SDS011;10479;53.524;9.846;2022-09-30T11:22:50;4.82;;;2.40;;
20639;SDS011;10479;53.524;9.846;2022-09-30T11:25:16;4.00;;;1.73;;
20639;SDS011;10479;53.524;9.846;2022-09-30T11:28:20;4.50;;;1.80;;
20639;SDS011;10479;53.524;9.846;2022-09-30T11:42:45;3.70;;;2.00;;
20639;SDS011;10479;53.524;9.846;2022-09-30T11:47:50;4.57;;;2.00;;
20639;SDS011;10479;53.524;9.846;2022-09-30T11:58:22;5.40;;;2.20;;
20639;SDS011;10479;53.524;9.846;2022-09-30T12:00:51;4.40;;;2.20;;
20639;SDS011;10479;53.524;9.846;2022-09-30T12:03:26;8.02;;;3.00;;
20639;SDS011;10479;53.524;9.846;2022-09-30T12:05:57;5.90;;;3.38;;
20639;SDS011;10479;53.524;9.846;2022-09-30T12:08:30;7.18;;;3.40;;
20639;SDS011;10479;53.524;9.846;2022-09-30T12:11:01;5.53;;;3.10;;
20639;SDS011;10479;53.524;9.846;2022-09-30T12:13:34;5.70;;;3.53;;
20639;SDS011;10479;53.524;9.846;2022-09-30T12:16:03;5.60;;;3.40;;
20639;SDS011;10479;53.524;9.846;2022-09-30T12:18:39;6.20;;;3.67;;
20639;SDS011;10479;53.524;9.846;2022-09-30T12:24:10;7.97;;;4.57;;
20639;SDS011;10479;53.524;9.846;2022-09-30T12:26:41;7.72;;;4.00;;
20639;SDS011;10479;53.524;9.846;2022-09-30T12:29:11;10.48;;;4.78;;
20639;SDS011;10479;53.524;9.846;2022-09-30T12:40:36;9.18;;;5.40;;
20639;SDS011;10479;53.524;9.846;2022-09-30T12:48:26;9.63;;;4.50;;
20639;SDS011;10479;53.524;9.846;2022-09-30T12:54:09;6.60;;;3.80;;
20639;SDS011;10479;53.524;9.846;2022-09-30T12:56:37;9.20;;;4.07;;
20639;SDS011;10479;53.524;9.846;2022-09-30T12:59:06;8.20;;;3.65;;
20639;SDS011;10479;53.524;9.846;2022-09-30T13:01:36;6.07;;;3.72;;
20639;SDS011;10479;53.524;9.846;2022-09-30T13:11:41;6.78;;;3.72;;
20639;SDS011;10479;53.524;9.846;2022-09-30T13:14:13;8.30;;;3.70;;
20639;SDS011;10479;53.524;9.846;2022-09-30T13:19:46;8.23;;;3.60;;
20639;SDS011;10479;53.524;9.846;2022-09-30T13:41:15;5.05;;;3.65;;
20639;SDS011;10479;53.524;9.846;2022-09-30T13:43:46;7.18;;;3.83;;
20639;SDS011;10479;53.524;9.846;2022-09-30T13:46:49;6.72;;;4.28;;
20639;SDS011;10479;53.524;9.846;2022-09-30T13:49:18;7.70;;;4.30;;
20639;SDS011;10479;53.524;9.846;2022-09-30T13:51:47;6.70;;;4.50;;
20639;SDS011;10479;53.524;9.846;2022-09-30T13:54:35;9.98;;;5.28;;
20639;SDS011;10479;53.524;9.846;2022-09-30T13:57:04;8.43;;;5.10;;
20639;SDS011;10479;53.524;9.846;2022-09-30T14:04:36;11.68;;;4.82;;
20639;SDS011;10479;53.524;9.846;2022-09-30T14:24:15;10.95;;;5.55;;
20639;SDS011;10479;53.524;9.846;2022-09-30T14:35:11;9.20;;;5.70;;
20639;SDS011;10479;53.524;9.846;2022-09-30T14:40:16;9.57;;;6.00;;
20639;SDS011;10479;53.524;9.846;2022-09-30T14:42:44;11.88;;;5.65;;
20639;SDS011;10479;53.524;9.846;2022-09-30T15:17:57;10.30;;;5.77;;
20639;SDS011;10479;53.524;9.846;2022-09-30T15:22:51;10.05;;;5.47;;
20639;SDS011;10479;53.524;9.846;2022-09-30T15:25:17;8.80;;;5.85;;
20639;SDS011;10479;53.524;9.846;2022-09-30T15:27:44;10.93;;;5.60;;
20639;SDS011;10479;53.524;9.846;2022-09-30T15:32:39;9.88;;;5.45;;
20639;SDS011;10479;53.524;9.846;2022-09-30T15:35:05;10.55;;;5.90;;
20639;SDS011;10479;53.524;9.846;2022-09-30T15:37:45;6.72;;;4.75;;
20639;SDS011;10479;53.524;9.846;2022-09-30T15:40:14;10.52;;;5.47;;
20639;SDS011;10479;53.524;9.846;2022-09-30T15:43:01;10.05;;;5.20;;
20639;SDS011;10479;53.524;9.846;2022-09-30T15:45:32;8.40;;;5.07;;
20639;SDS011;10479;53.524;9.846;2022-09-30T15:48:05;8.13;;;5.30;;
20639;SDS011;10479;53.524;9.846;2022-09-30T15:50:58;8.93;;;5.43;;
20639;SDS011;10479;53.524;9.846;2022-09-30T15:53:31;10.88;;;6.05;;
20639;SDS011;10479;53.524;9.846;2022-09-30T15:56:24;8.90;;;5.63;;
20639;SDS011;10479;53.524;9.846;2022-09-30T15:59:06;11.10;;;5.80;;
20639;SDS011;10479;53.524;9.846;2022-09-30T16:07:24;8.98;;;5.55;;
20639;SDS011;10479;53.524;9.846;2022-09-30T16:12:49;12.20;;;5.70;;
20639;SDS011;10479;53.524;9.846;2022-09-30T16:15:54;10.05;;;5.38;;
20639;SDS011;10479;53.524;9.846;2022-09-30T16:18:59;8.70;;;5.60;;
20639;SDS011;10479;53.524;9.846;2022-09-30T16:25:31;9.70;;;5.10;;
20639;SDS011;10479;53.524;9.846;2022-09-30T16:35:21;8.60;;;4.95;;
20639;SDS011;10479;53.524;9.846;2022-09-30T16:38:38;8.07;;;5.43;;
20639;SDS011;10479;53.524;9.846;2022-09-30T16:42:14;9.65;;;4.93;;
20639;SDS011;10479;53.524;9.846;2022-09-30T17:16:24;10.18;;;5.90;;
20639;SDS011;10479;53.524;9.846;2022-09-30T17:18:50;11.82;;;6.70;;
20639;SDS011;10479;53.524;9.846;2022-09-30T17:21:17;9.57;;;5.72;;
20639;SDS011;10479;53.524;9.846;2022-09-30T17:23:45;11.05;;;5.93;;
20639;SDS011;10479;53.524;9.846;2022-09-30T17:26:11;10.35;;;6.32;;
20639;SDS011;10479;53.524;9.846;2022-09-30T17:28:36;11.95;;;6.50;;
20639;SDS011;10479;53.524;9.846;2022-09-30T17:31:02;11.32;;;6.75;;
20639;SDS011;10479;53.524;9.846;2022-09-30T17:33:32;14.45;;;7.13;;
20639;SDS011;10479;53.524;9.846;2022-09-30T17:36:00;13.73;;;7.38;;
20639;SDS011;10479;53.524;9.846;2022-09-30T17:38:27;14.25;;;7.35;;
20639;SDS011;10479;53.524;9.846;2022-09-30T17:40:53;11.73;;;7.22;;
20639;SDS011;10479;53.524;9.846;2022-09-30T17:43:37;15.55;;;7.28;;
20639;SDS011;10479;53.524;9.846;2022-09-30T17:46:03;11.73;;;7.43;;
20639;SDS011;10479;53.524;9.846;2022-09-30T17:48:30;11.50;;;7.07;;
20639;SDS011;10479;53.524;9.846;2022-09-30T17:50:56;12.90;;;6.75;;
20639;SDS011;10479;53.524;9.846;2022-09-30T17:53:21;12.15;;;7.07;;
20639;SDS011;10479;53.524;9.846;2022-09-30T17:55:53;13.80;;;7.40;;
20639;SDS011;10479;53.524;9.846;2022-09-30T17:58:25;14.07;;;7.35;;
20639;SDS011;10479;53.524;9.846;2022-09-30T18:00:51;13.98;;;7.60;;
20639;SDS011;10479;53.524;9.846;2022-09-30T18:03:17;13.95;;;7.30;;
20639;SDS011;10479;53.524;9.846;2022-09-30T18:05:43;11.57;;;7.55;;
20639;SDS011;10479;53.524;9.846;2022-09-30T18:08:10;11.93;;;7.18;;
20639;SDS011;10479;53.524;9.846;2022-09-30T18:10:36;13.30;;;7.22;;
20639;SDS011;10479;53.524;9.846;2022-09-30T18:13:02;9.73;;;6.95;;
20639;SDS011;10479;53.524;9.846;2022-09-30T18:15:28;16.23;;;7.20;;
20639;SDS011;10479;53.524;9.846;2022-09-30T18:17:54;12.07;;;7.35;;
20639;SDS011;10479;53.524;9.846;2022-09-30T18:20:20;10.32;;;6.50;;
20639;SDS011;10479;53.524;9.846;2022-09-30T18:22:45;11.85;;;7.13;;
20639;SDS011;10479;53.524;9.846;2022-09-30T18:25:11;12.82;;;7.47;;
20639;SDS011;10479;53.524;9.846;2022-09-30T18:27:47;10.45;;;6.55;;
20639;SDS011;10479;53.524;9.846;2022-09-30T18:30:17;14.23;;;6.85;;
20639;SDS011;10479;53.524;9.846;2022-09-30T18:32:48;9.57;;;6.10;;
20639;SDS011;10479;53.524;9.846;2022-09-30T18:35:14;9.45;;;6.65;;
20639;SDS011;10479;53.524;9.846;2022-09-30T18:37:43;11.30;;;6.85;;
20639;SDS011;10479;53.524;9.846;2022-09-30T18:40:11;12.73;;;6.72;;
20639;SDS011;10479;53.524;9.846;2022-09-30T18:42:41;11.90;;;6.72;;
20639;SDS011;10479;53.524;9.846;2022-09-30T18:45:08;14.90;;;7.07;;
20639;SDS011;10479;53.524;9.846;2022-09-30T18:47:37;10.40;;;6.03;;
20639;SDS011;10479;53.524;9.846;2022-09-30T18:50:11;11.77;;;6.22;;
20639;SDS011;10479;53.524;9.846;2022-09-30T18:52:38;12.35;;;6.25;;
20639;SDS011;10479;53.524;9.846;2022-09-30T18:55:04;12.25;;;6.22;;
20639;SDS011;10479;53.524;9.846;2022-09-30T18:57:31;12.00;;;6.20;;
20639;SDS011;10479;53.524;9.846;2022-09-30T18:59:58;12.52;;;5.68;;
20639;SDS011;10479;53.524;9.846;2022-09-30T19:02:31;10.73;;;6.07;;
20639;SDS011;10479;53.524;9.846;2022-09-30T19:05:28;11.32;;;6.05;;
20639;SDS011;10479;53.524;9.846;2022-09-30T19:12:03;11.38;;;6.35;;
20639;SDS011;10479;53.524;9.846;2022-09-30T19:15:12;9.75;;;6.25;;
20639;SDS011;10479;53.524;9.846;2022-09-30T19:18:23;10.60;;;6.07;;
20639;SDS011;10479;53.524;9.846;2022-09-30T19:25:10;15.50;;;6.25;;
20639;SDS011;10479;53.524;9.846;2022-09-30T19:28:16;10.43;;;5.70;;
20639;SDS011;10479;53.524;9.846;2022-09-30T19:31:26;11.18;;;6.45;;
20639;SDS011;10479;53.524;9.846;2022-09-30T19:35:05;9.48;;;5.57;;
20639;SDS011;10479;53.524;9.846;2022-09-30T19:52:34;12.50;;;5.80;;
20639;SDS011;10479;53.524;9.846;2022-09-30T20:23:11;9.15;;;5.05;;
20639;SDS011;10479;53.524;9.846;2022-09-30T20:29:47;9.85;;;5.20;;
20639;SDS011;10479;53.524;9.846;2022-09-30T20:47:41;15.15;;;4.90;;
20639;SDS011;10479;53.524;9.846;2022-09-30T20:50:10;7.72;;;4.90;;
20639;SDS011;10479;53.524;9.846;2022-09-30T20:52:59;9.15;;;4.57;;
20639;SDS011;10479;53.524;9.846;2022-09-30T20:55:31;8.55;;;4.43;;
20639;SDS011;10479;53.524;9.846;2022-09-30T20:57:57;9.48;;;4.25;;
20639;SDS011;10479;53.524;9.846;2022-09-30T21:00:23;9.43;;;4.63;;